Bugul'Ma, Russia
Current Conditions -  °F | °C
As of 2:30 PM on Saturday 25 Oct 2014 (Local Time) from UWKE Reporting Station
Scattered Clouds Scattered Clouds  
Wind Chill:   Ceiling: Unl
Heat Index: 21°   Visibility: 6mi
Dew Point: 12°   Wind: 13mph
Humidity: 68%   Direction: 340°NNW
Pressure: 30.21"   Gusts: 20mph
Location:  54.5°N, 52.87°E
Report Text: UWKE 251130Z 34006G09MPS 9999 SCT027CB M06/M11 Q1023 NOSIG RMKQFE750/1000 03420560
Loading
Personal Weather Stations






























Interactive Weather Map
Tropical Storm Tracking
New forecast layout! Learn more

10-Day Weather Forecast

Advertisements
Track Severe Weather on mobile